createdAt,value
2023-03-06T00:00:09.313Z,5.21
2023-03-06T00:01:49.157Z,5.23
2023-03-06T00:03:28.840Z,5.21
2023-03-06T00:05:08.605Z,5.22
2023-03-06T00:06:48.377Z,5.19
2023-03-06T00:08:28.144Z,5.19
2023-03-06T00:10:07.893Z,5.2
2023-03-06T00:11:47.694Z,5.19
2023-03-06T00:13:27.457Z,5.2
2023-03-06T00:15:07.199Z,5.19
2023-03-06T00:16:46.976Z,5.16
2023-03-06T00:18:26.742Z,5.18
2023-03-06T00:20:06.520Z,5.18
2023-03-06T00:21:46.282Z,5.18
2023-03-06T00:23:26.059Z,5.17
2023-03-06T00:25:05.825Z,5.17
2023-03-06T00:26:45.628Z,5.14
2023-03-06T00:28:25.373Z,5.13
2023-03-06T00:30:05.156Z,5.13
2023-03-06T00:31:44.871Z,5.15
2023-03-06T00:33:24.652Z,5.12
2023-03-06T00:35:04.430Z,5.12
2023-03-06T00:36:44.169Z,5.1
2023-03-06T00:38:23.959Z,5.14
2023-03-06T00:40:03.732Z,5.12
2023-03-06T00:41:43.523Z,5.13
2023-03-06T00:43:23.248Z,5.09
2023-03-06T00:45:03.027Z,5.12
2023-03-06T00:46:42.787Z,5.11
2023-03-06T00:48:22.566Z,5.09
2023-03-06T00:50:02.322Z,5.11
2023-03-06T00:51:42.082Z,5.1
2023-03-06T00:53:21.877Z,5.1
2023-03-06T00:55:01.622Z,5.08
2023-03-06T00:56:41.397Z,5.07
2023-03-06T00:58:21.160Z,5.04
2023-03-06T01:00:00.913Z,5.08
2023-03-06T01:01:40.758Z,5.05
2023-03-06T01:03:20.450Z,5.05
2023-03-06T01:05:00.266Z,5.05
2023-03-06T01:06:39.978Z,5.02
2023-03-06T01:08:19.760Z,5.02
2023-03-06T01:09:59.551Z,5.05
2023-03-06T01:11:39.283Z,5.02
2023-03-06T01:13:19.057Z,5.04
2023-03-06T01:14:58.870Z,5
2023-03-06T01:16:38.591Z,5.02
2023-03-06T01:18:18.347Z,4.98
2023-03-06T01:19:58.195Z,5
2023-03-06T01:21:37.893Z,4.96
2023-03-06T01:23:17.656Z,4.98
2023-03-06T01:24:57.440Z,5
2023-03-06T01:26:37.188Z,4.94
2023-03-06T01:28:16.951Z,4.96
2023-03-06T01:29:56.715Z,4.98
2023-03-06T01:31:36.515Z,4.98
2023-03-06T01:33:16.321Z,4.98
2023-03-06T01:34:56.087Z,4.98
2023-03-06T01:36:35.805Z,4.92
2023-03-06T01:38:15.559Z,4.94
2023-03-06T01:39:55.370Z,4.96
2023-03-06T01:41:35.178Z,4.96
2023-03-06T01:43:14.868Z,4.92
2023-03-06T01:44:54.632Z,4.94
2023-03-06T01:46:34.426Z,4.91
2023-03-06T01:48:14.162Z,4.92
2023-03-06T01:49:53.937Z,4.92
2023-03-06T01:51:33.707Z,4.9
2023-03-06T01:53:13.516Z,4.91
2023-03-06T01:54:53.227Z,4.9
2023-03-06T01:56:33.010Z,4.91
2023-03-06T01:58:12.764Z,4.9
2023-03-06T01:59:52.545Z,4.91
2023-03-06T02:01:32.300Z,4.91
2023-03-06T02:03:12.064Z,4.9
2023-03-06T02:04:51.842Z,4.91
2023-03-06T02:06:31.608Z,4.9
2023-03-06T02:08:11.373Z,4.86
2023-03-06T02:09:51.150Z,4.85
2023-03-06T02:11:30.895Z,4.88
2023-03-06T02:13:10.682Z,4.85
2023-03-06T02:14:50.445Z,4.84
2023-03-06T02:16:30.214Z,4.87
2023-03-06T02:18:09.996Z,4.87
2023-03-06T02:19:49.752Z,4.86
2023-03-06T02:21:29.571Z,4.86
2023-03-06T02:23:09.276Z,4.86
2023-03-06T02:24:49.048Z,4.85
2023-03-06T02:26:28.815Z,4.82
2023-03-06T02:28:08.580Z,4.84
2023-03-06T02:29:48.339Z,4.82
2023-03-06T02:31:28.126Z,4.82
2023-03-06T02:33:07.904Z,4.84
2023-03-06T02:34:47.649Z,4.8
2023-03-06T02:36:27.413Z,4.8
2023-03-06T02:38:07.182Z,4.83
2023-03-06T02:39:47.013Z,4.79
2023-03-06T02:41:26.714Z,4.79
2023-03-06T02:43:06.490Z,4.82
2023-03-06T02:44:46.255Z,4.82
2023-03-06T02:46:26.032Z,4.78
2023-03-06T02:48:05.793Z,4.81
2023-03-06T02:49:45.638Z,4.78
2023-03-06T02:51:25.382Z,4.78
2023-03-06T02:53:05.083Z,4.81
2023-03-06T02:54:44.858Z,4.77
2023-03-06T02:56:24.608Z,4.78
2023-03-06T02:58:04.394Z,4.8
2023-03-06T02:59:44.174Z,4.77
2023-03-06T03:01:23.928Z,4.79
2023-03-06T03:03:03.690Z,4.78
2023-03-06T03:04:43.451Z,4.77
2023-03-06T03:06:23.255Z,4.78
2023-03-06T03:08:03.035Z,4.81
2023-03-06T03:09:42.779Z,4.78
2023-03-06T03:11:22.555Z,4.77
2023-03-06T03:13:02.303Z,4.77
2023-03-06T03:14:42.060Z,4.77
2023-03-06T03:16:21.857Z,4.78
2023-03-06T03:18:01.592Z,4.8
2023-03-06T03:19:41.368Z,4.77
2023-03-06T03:21:21.162Z,4.8
2023-03-06T03:23:00.930Z,4.77
2023-03-06T03:24:40.726Z,4.77
2023-03-06T03:26:20.439Z,4.79
2023-03-06T03:28:00.202Z,4.8
2023-03-06T03:29:39.964Z,4.81
2023-03-06T03:31:19.750Z,4.79
2023-03-06T03:32:59.558Z,4.8
2023-03-06T03:34:39.274Z,4.81
2023-03-06T03:36:19.045Z,4.82
2023-03-06T03:37:58.822Z,4.79
2023-03-06T03:39:38.588Z,4.82
2023-03-06T03:41:18.457Z,4.79
2023-03-06T03:42:58.116Z,4.83
2023-03-06T03:44:37.871Z,4.8
2023-03-06T03:46:17.693Z,4.83
2023-03-06T03:47:57.424Z,4.79
2023-03-06T03:49:37.209Z,4.84
2023-03-06T03:51:16.936Z,4.84
2023-03-06T03:52:56.770Z,4.84
2023-03-06T03:54:36.476Z,4.81
2023-03-06T03:56:16.346Z,4.83
2023-03-06T03:57:56.004Z,4.85
2023-03-06T03:59:35.867Z,4.83
2023-03-06T04:01:15.559Z,4.85
2023-03-06T04:02:55.325Z,4.86
2023-03-06T04:04:35.087Z,4.85
2023-03-06T04:06:14.857Z,4.83
2023-03-06T04:07:54.637Z,4.87
2023-03-06T04:09:34.376Z,4.86
2023-03-06T04:11:14.174Z,4.87
2023-03-06T04:12:53.907Z,4.86
2023-03-06T04:14:33.744Z,4.84
2023-03-06T04:16:13.432Z,4.86
2023-03-06T04:17:53.212Z,4.86
2023-03-06T04:19:32.991Z,4.86
2023-03-06T04:21:12.750Z,4.9
2023-03-06T04:22:52.528Z,4.86
2023-03-06T04:24:32.286Z,4.9
2023-03-06T04:26:12.042Z,4.87
2023-03-06T04:27:51.811Z,4.87
2023-03-06T04:29:31.636Z,4.88
2023-03-06T04:31:11.340Z,4.87
2023-03-06T04:32:51.181Z,4.91
2023-03-06T04:34:30.927Z,4.89
2023-03-06T04:36:10.658Z,4.91
2023-03-06T04:37:50.490Z,4.91
2023-03-06T04:39:30.193Z,4.88
2023-03-06T04:41:10.029Z,4.89
2023-03-06T04:42:49.749Z,4.91
2023-03-06T04:44:29.528Z,4.9
2023-03-06T04:46:09.268Z,4.92
2023-03-06T04:47:49.027Z,4.92
2023-03-06T04:49:28.808Z,4.92
2023-03-06T04:51:08.569Z,4.94
2023-03-06T04:52:48.325Z,4.92
2023-03-06T04:54:28.114Z,4.94
2023-03-06T04:56:07.856Z,4.94
2023-03-06T04:57:47.623Z,4.92
2023-03-06T04:59:27.404Z,4.96
2023-03-06T05:01:07.186Z,4.92
2023-03-06T05:02:46.937Z,4.96
2023-03-06T05:04:26.692Z,4.94
2023-03-06T05:06:06.478Z,4.96
2023-03-06T05:07:46.223Z,4.98
2023-03-06T05:09:26.011Z,4.96
2023-03-06T05:11:05.762Z,4.96
2023-03-06T05:12:45.583Z,4.98
2023-03-06T05:14:25.313Z,4.96
2023-03-06T05:16:05.065Z,4.96
2023-03-06T05:17:44.896Z,4.96
2023-03-06T05:19:24.623Z,4.96
2023-03-06T05:21:04.359Z,4.96
2023-03-06T05:22:44.146Z,4.98
2023-03-06T05:24:23.943Z,5
2023-03-06T05:26:03.683Z,4.96
2023-03-06T05:27:43.437Z,4.98
2023-03-06T05:29:23.201Z,5
2023-03-06T05:31:02.997Z,4.98
2023-03-06T05:32:42.780Z,5.04
2023-03-06T05:34:22.498Z,5.03
2023-03-06T05:36:02.299Z,5.02
2023-03-06T05:37:42.050Z,5.07
2023-03-06T05:39:21.812Z,5.1
2023-03-06T05:41:01.682Z,5.12
2023-03-06T05:42:41.344Z,5.14
2023-03-06T05:44:21.110Z,5.16
2023-03-06T05:46:00.871Z,5.2
2023-03-06T05:47:40.650Z,5.22
2023-03-06T05:49:20.449Z,5.26
2023-03-06T05:51:00.183Z,5.26
2023-03-06T05:52:39.956Z,5.28
2023-03-06T05:54:19.732Z,5.29
2023-03-06T05:55:59.476Z,5.3
2023-03-06T05:57:39.262Z,5.34
2023-03-06T05:59:19.016Z,5.32
2023-03-06T06:00:58.800Z,5.35
2023-03-06T06:02:38.553Z,5.41
2023-03-06T06:04:18.383Z,5.37
2023-03-06T06:05:58.077Z,5.41
2023-03-06T06:07:37.851Z,5.44
2023-03-06T06:09:17.632Z,5.44
2023-03-06T06:10:57.388Z,5.44
2023-03-06T06:12:37.152Z,5.45
2023-03-06T06:14:16.912Z,5.45
2023-03-06T06:15:56.683Z,5.46
2023-03-06T06:17:36.445Z,5.44
2023-03-06T06:19:16.237Z,5.5
2023-03-06T06:20:55.995Z,5.5
2023-03-06T06:22:35.761Z,5.49
2023-03-06T06:24:15.562Z,5.5
2023-03-06T06:25:55.293Z,5.5
2023-03-06T06:27:35.055Z,5.51
2023-03-06T06:29:14.829Z,5.54
2023-03-06T06:30:54.592Z,5.53
2023-03-06T06:32:34.353Z,5.53
2023-03-06T06:34:14.158Z,5.5
2023-03-06T06:35:53.945Z,5.52
2023-03-06T06:37:33.659Z,5.55
2023-03-06T06:39:13.425Z,5.56
2023-03-06T06:40:53.186Z,5.56
2023-03-06T06:42:33.089Z,5.57
2023-03-06T06:44:12.764Z,5.59
2023-03-06T06:45:52.621Z,5.55
2023-03-06T06:47:32.437Z,5.56
2023-03-06T06:49:12.249Z,5.59
2023-03-06T06:50:52.014Z,5.58
2023-03-06T06:52:31.792Z,5.6
2023-03-06T06:54:11.475Z,5.59
2023-03-06T06:55:51.251Z,5.58
2023-03-06T06:57:31.086Z,5.59
2023-03-06T06:59:10.656Z,5.61
2023-03-06T07:00:50.574Z,5.66
2023-03-06T07:02:30.370Z,5.59
2023-03-06T07:04:09.964Z,5.6
2023-03-06T07:05:49.873Z,5.59
2023-03-06T07:07:29.693Z,5.61
2023-03-06T07:09:09.448Z,5.59
2023-03-06T07:10:49.182Z,5.62
2023-03-06T07:12:28.927Z,5.61
2023-03-06T07:14:08.723Z,5.65
2023-03-06T07:15:48.551Z,5.66
2023-03-06T07:17:28.307Z,5.65
2023-03-06T07:19:07.880Z,5.66
2023-03-06T07:20:47.793Z,5.63
2023-03-06T07:22:27.497Z,5.64
2023-03-06T07:24:07.410Z,5.65
2023-03-06T07:25:47.051Z,5.66
2023-03-06T07:27:26.889Z,5.67
2023-03-06T07:29:06.694Z,5.67
2023-03-06T07:30:46.284Z,5.7
2023-03-06T07:32:26.222Z,5.7
2023-03-06T07:34:05.989Z,5.72
2023-03-06T07:35:45.821Z,5.75
2023-03-06T07:37:25.496Z,5.81
2023-03-06T07:39:05.359Z,5.86
2023-03-06T07:40:45.048Z,5.9
2023-03-06T07:42:24.828Z,5.96
2023-03-06T07:44:04.648Z,6.05
2023-03-06T07:45:44.322Z,6.12
2023-03-06T07:47:23.986Z,6.21
2023-03-06T07:49:03.948Z,6.24
2023-03-06T07:50:43.672Z,6.35
2023-03-06T07:52:23.433Z,6.45
2023-03-06T07:54:03.062Z,6.47
2023-03-06T07:55:42.902Z,6.51
2023-03-06T07:57:22.731Z,6.51
2023-03-06T07:59:02.587Z,6.52
2023-03-06T08:00:42.378Z,6.53
2023-03-06T08:02:22.123Z,6.56
2023-03-06T08:04:01.828Z,6.56
2023-03-06T08:05:41.632Z,6.55
2023-03-06T08:07:21.359Z,6.56
2023-03-06T08:09:00.995Z,6.55
2023-03-06T08:10:40.988Z,6.57
2023-03-06T08:12:20.566Z,6.59
2023-03-06T08:14:00.451Z,6.59
2023-03-06T08:15:40.075Z,6.57
2023-03-06T08:17:20.000Z,6.6
2023-03-06T08:18:59.781Z,6.59
2023-03-06T08:20:39.531Z,6.6
2023-03-06T08:22:19.324Z,6.59
2023-03-06T08:23:59.117Z,6.63
2023-03-06T08:25:38.829Z,6.61
2023-03-06T08:27:18.570Z,6.63
2023-03-06T08:28:58.328Z,6.62
2023-03-06T08:30:38.090Z,6.65
2023-03-06T08:32:17.939Z,6.67
2023-03-06T08:33:57.593Z,6.64
2023-03-06T08:35:37.520Z,6.64
2023-03-06T08:37:17.259Z,6.65
2023-03-06T08:38:57.023Z,6.64
2023-03-06T08:40:36.905Z,6.59
2023-03-06T08:42:16.536Z,6.6
2023-03-06T08:43:56.386Z,6.59
2023-03-06T08:45:36.135Z,6.58
2023-03-06T08:47:15.802Z,6.56
2023-03-06T08:48:55.483Z,6.57
2023-03-06T08:50:35.318Z,6.57
2023-03-06T08:52:15.176Z,6.54
2023-03-06T08:53:54.909Z,6.59
2023-03-06T08:55:34.603Z,6.57
2023-03-06T08:57:14.464Z,6.55
2023-03-06T08:58:54.098Z,6.57
2023-03-06T09:00:33.869Z,6.59
2023-03-06T09:02:13.671Z,6.61
2023-03-06T09:03:53.417Z,6.61
2023-03-06T09:05:33.208Z,6.6
2023-03-06T09:07:12.988Z,6.58
2023-03-06T09:08:52.741Z,6.56
2023-03-06T09:10:32.482Z,6.58
2023-03-06T09:12:12.314Z,6.54
2023-03-06T09:13:52.035Z,6.52
2023-03-06T09:15:31.885Z,6.57
2023-03-06T09:17:11.576Z,6.53
2023-03-06T09:18:51.319Z,6.49
2023-03-06T09:20:31.109Z,6.46
2023-03-06T09:22:10.889Z,6.46
2023-03-06T09:23:50.667Z,6.46
2023-03-06T09:25:30.410Z,6.44
2023-03-06T09:27:10.172Z,6.46
2023-03-06T09:28:50.003Z,6.41
2023-03-06T09:30:29.721Z,6.45
2023-03-06T09:32:09.580Z,6.39
2023-03-06T09:33:49.253Z,6.4
2023-03-06T09:35:29.226Z,6.37
2023-03-06T09:37:08.958Z,6.35
2023-03-06T09:38:48.695Z,6.38
2023-03-06T09:40:28.433Z,6.34
2023-03-06T09:42:08.217Z,6.36
2023-03-06T09:43:47.988Z,6.34
2023-03-06T09:45:27.760Z,6.31
2023-03-06T09:47:07.395Z,6.3
2023-03-06T09:48:47.296Z,6.33
2023-03-06T09:50:27.016Z,6.32
2023-03-06T09:52:06.818Z,6.3
2023-03-06T09:53:46.525Z,6.29
2023-03-06T09:55:26.368Z,6.28
2023-03-06T09:57:06.072Z,6.27
2023-03-06T09:58:45.927Z,6.27
2023-03-06T10:00:25.621Z,6.24
2023-03-06T10:02:05.404Z,6.26
2023-03-06T10:03:45.217Z,6.32
2023-03-06T10:05:24.936Z,6.33
2023-03-06T10:07:04.795Z,6.36
2023-03-06T10:08:44.556Z,6.42
2023-03-06T10:10:24.188Z,6.42
2023-03-06T10:12:03.978Z,6.44
2023-03-06T10:13:43.770Z,6.49
2023-03-06T10:15:23.524Z,6.55
2023-03-06T10:17:03.466Z,6.54
2023-03-06T10:18:43.085Z,6.6
2023-03-06T10:20:22.908Z,6.62
2023-03-06T10:22:02.700Z,6.66
2023-03-06T10:23:42.448Z,6.67
2023-03-06T10:25:22.205Z,6.71
2023-03-06T10:27:01.897Z,6.68
2023-03-06T10:28:41.772Z,6.74
2023-03-06T10:30:21.420Z,6.73
2023-03-06T10:32:01.326Z,6.77
2023-03-06T10:33:41.148Z,6.81
2023-03-06T10:35:20.738Z,6.79
2023-03-06T10:37:00.545Z,6.78
2023-03-06T10:38:40.363Z,6.85
2023-03-06T10:40:20.046Z,6.87
2023-03-06T10:41:59.820Z,6.88
2023-03-06T10:43:39.658Z,6.87
2023-03-06T10:45:19.364Z,6.88
2023-03-06T10:46:59.158Z,6.89
2023-03-06T10:48:39.015Z,6.9
2023-03-06T10:50:18.674Z,6.94
2023-03-06T10:51:58.482Z,6.94
2023-03-06T10:53:38.299Z,6.94
2023-03-06T10:55:17.993Z,6.96
2023-03-06T10:56:57.890Z,6.96
2023-03-06T10:58:37.555Z,7.01
2023-03-06T11:00:17.432Z,7.01
2023-03-06T11:01:57.087Z,7.01
2023-03-06T11:03:36.884Z,7.03
2023-03-06T11:05:16.669Z,7.02
2023-03-06T11:06:56.365Z,7.07
2023-03-06T11:08:36.153Z,7.03
2023-03-06T11:10:15.908Z,7.09
2023-03-06T11:11:55.777Z,7.09
2023-03-06T11:13:35.553Z,7.07
2023-03-06T11:15:15.350Z,7.09
2023-03-06T11:16:55.055Z,7.11
2023-03-06T11:18:34.784Z,7.15
2023-03-06T11:20:14.594Z,7.09
2023-03-06T11:21:54.368Z,7.12
2023-03-06T11:23:34.138Z,7.13
2023-03-06T11:25:13.861Z,7.17
2023-03-06T11:26:53.627Z,7.17
2023-03-06T11:28:33.388Z,7.19
2023-03-06T11:30:13.181Z,7.18
2023-03-06T11:31:52.959Z,7.21
2023-03-06T11:33:32.735Z,7.16
2023-03-06T11:35:12.471Z,7.21
2023-03-06T11:36:52.325Z,7.22
2023-03-06T11:38:32.021Z,7.22
2023-03-06T11:40:11.799Z,7.25
2023-03-06T11:41:51.644Z,7.25
2023-03-06T11:43:31.439Z,7.22
2023-03-06T11:45:11.075Z,7.27
2023-03-06T11:46:50.841Z,7.25
2023-03-06T11:48:30.619Z,7.27
2023-03-06T11:50:10.485Z,7.28
2023-03-06T11:51:50.189Z,7.28
2023-03-06T11:53:29.930Z,7.28
2023-03-06T11:55:09.797Z,7.27
2023-03-06T11:56:49.484Z,7.27
2023-03-06T11:58:29.254Z,7.29
2023-03-06T12:00:09.022Z,7.3
2023-03-06T12:01:48.819Z,7.29
2023-03-06T12:03:28.556Z,7.28
2023-03-06T12:05:08.382Z,7.33
2023-03-06T12:06:48.143Z,7.32
2023-03-06T12:08:27.878Z,7.37
2023-03-06T12:10:07.630Z,7.34
2023-03-06T12:11:47.421Z,7.36
2023-03-06T12:13:27.225Z,7.37
2023-03-06T12:15:06.961Z,7.39
2023-03-06T12:16:46.748Z,7.38
2023-03-06T12:18:26.502Z,7.41
2023-03-06T12:20:06.285Z,7.42
2023-03-06T12:21:46.046Z,7.4
2023-03-06T12:23:25.794Z,7.44
2023-03-06T12:25:05.564Z,7.42
2023-03-06T12:26:45.339Z,7.43
2023-03-06T12:28:25.128Z,7.43
2023-03-06T12:30:04.901Z,7.45
2023-03-06T12:31:44.650Z,7.47
2023-03-06T12:33:24.527Z,7.49
2023-03-06T12:35:04.204Z,7.5
2023-03-06T12:36:43.978Z,7.51
2023-03-06T12:38:23.725Z,7.51
2023-03-06T12:40:03.513Z,7.5
2023-03-06T12:41:43.342Z,7.51
2023-03-06T12:43:23.040Z,7.5
2023-03-06T12:45:02.816Z,7.55
2023-03-06T12:46:42.692Z,7.51
2023-03-06T12:48:22.360Z,7.55
2023-03-06T12:50:02.319Z,7.58
2023-03-06T12:51:41.974Z,7.56
2023-03-06T12:53:21.832Z,7.59
2023-03-06T12:55:01.437Z,7.61
2023-03-06T12:56:41.242Z,7.59
2023-03-06T12:58:20.984Z,7.58
2023-03-06T13:00:00.981Z,7.49
2023-03-06T13:01:40.557Z,7.47
2023-03-06T13:03:20.302Z,7.41
2023-03-06T13:05:00.211Z,7.37
2023-03-06T13:06:39.825Z,7.36
2023-03-06T13:08:19.586Z,7.41
2023-03-06T13:09:59.424Z,7.4
2023-03-06T13:11:39.171Z,7.38
2023-03-06T13:13:18.984Z,7.39
2023-03-06T13:14:58.674Z,7.38
2023-03-06T13:16:38.555Z,7.37
2023-03-06T13:18:18.300Z,7.38
2023-03-06T13:19:57.994Z,7.36
2023-03-06T13:21:37.743Z,7.37
2023-03-06T13:23:17.542Z,7.41
2023-03-06T13:24:57.435Z,7.39
2023-03-06T13:26:37.063Z,7.38
2023-03-06T13:28:16.835Z,7.4
2023-03-06T13:29:56.609Z,7.4
2023-03-06T13:31:36.608Z,7.39
2023-03-06T13:33:16.145Z,7.43
2023-03-06T13:34:55.990Z,7.44
2023-03-06T13:36:35.711Z,7.44
2023-03-06T13:38:15.446Z,7.49
2023-03-06T13:39:55.236Z,7.44
2023-03-06T13:41:35.156Z,7.45
2023-03-06T13:43:14.975Z,7.47
2023-03-06T13:44:54.734Z,7.5
2023-03-06T13:46:34.398Z,7.5
2023-03-06T13:48:14.159Z,7.55
2023-03-06T13:49:54.056Z,7.56
2023-03-06T13:51:33.814Z,7.57
2023-03-06T13:53:13.515Z,7.57
2023-03-06T13:54:53.243Z,7.59
2023-03-06T13:56:32.942Z,7.64
2023-03-06T13:58:12.725Z,7.62
2023-03-06T13:59:52.621Z,7.69
2023-03-06T14:01:32.234Z,7.66
2023-03-06T14:03:12.156Z,7.72
2023-03-06T14:04:51.922Z,7.71
2023-03-06T14:06:31.695Z,7.74
2023-03-06T14:08:11.299Z,7.75
2023-03-06T14:09:51.255Z,7.77
2023-03-06T14:11:30.988Z,7.81
2023-03-06T14:13:10.801Z,7.8
2023-03-06T14:14:50.530Z,7.8
2023-03-06T14:16:30.318Z,7.8
2023-03-06T14:18:10.108Z,7.82
2023-03-06T14:19:49.786Z,7.87
2023-03-06T14:21:29.567Z,7.87
2023-03-06T14:23:09.300Z,7.87
2023-03-06T14:24:49.023Z,7.89
2023-03-06T14:26:28.828Z,7.96
2023-03-06T14:28:08.545Z,7.92
2023-03-06T14:29:48.316Z,7.97
2023-03-06T14:31:28.256Z,7.94
2023-03-06T14:33:08.007Z,8
2023-03-06T14:34:47.861Z,8
2023-03-06T14:36:27.399Z,8.01
2023-03-06T14:38:07.332Z,8.01
2023-03-06T14:39:47.074Z,8.03
2023-03-06T14:41:26.731Z,8.03
2023-03-06T14:43:06.621Z,8.06
2023-03-06T14:44:46.384Z,8.07
2023-03-06T14:46:26.167Z,8.06
2023-03-06T14:48:05.978Z,8.08
2023-03-06T14:49:45.765Z,8.05
2023-03-06T14:51:25.328Z,8.1
2023-03-06T14:53:05.347Z,8.12
2023-03-06T14:54:45.064Z,8.12
2023-03-06T14:56:24.794Z,8.13
2023-03-06T14:58:04.552Z,8.14
2023-03-06T14:59:44.334Z,8.14
2023-03-06T15:01:24.126Z,8.14
2023-03-06T15:03:03.833Z,8.12
2023-03-06T15:04:43.681Z,8.13
2023-03-06T15:06:23.346Z,8.14
2023-03-06T15:08:03.042Z,8.18
2023-03-06T15:09:42.922Z,8.17
2023-03-06T15:11:22.571Z,8.2
2023-03-06T15:13:02.369Z,8.16
2023-03-06T15:14:42.300Z,8.22
2023-03-06T15:16:21.881Z,8.2
2023-03-06T15:18:01.663Z,8.2
2023-03-06T15:19:41.419Z,8.2
2023-03-06T15:21:21.265Z,8.21
2023-03-06T15:23:01.011Z,8.22
2023-03-06T15:24:40.739Z,8.21
2023-03-06T15:26:20.574Z,8.21
2023-03-06T15:28:00.308Z,8.22
2023-03-06T15:29:40.032Z,8.22
2023-03-06T15:31:19.814Z,8.22
2023-03-06T15:32:59.707Z,8.22
2023-03-06T15:34:39.520Z,8.22
2023-03-06T15:36:19.294Z,8.27
2023-03-06T15:37:58.887Z,8.26
2023-03-06T15:39:38.822Z,8.22
2023-03-06T15:41:18.558Z,8.26
2023-03-06T15:42:58.305Z,8.25
2023-03-06T15:44:38.118Z,8.29
2023-03-06T15:46:17.772Z,8.28
2023-03-06T15:47:57.618Z,8.26
2023-03-06T15:49:37.346Z,8.27
2023-03-06T15:51:17.061Z,8.27
2023-03-06T15:52:56.904Z,8.26
2023-03-06T15:54:36.659Z,8.28
2023-03-06T15:56:16.402Z,8.28
2023-03-06T15:57:56.125Z,8.24
2023-03-06T15:59:35.919Z,8.25
2023-03-06T16:01:15.702Z,8.25
2023-03-06T16:02:55.645Z,8.24
2023-03-06T16:04:35.390Z,8.26
2023-03-06T16:06:15.145Z,8.27
2023-03-06T16:07:54.983Z,8.26
2023-03-06T16:09:34.616Z,8.22
2023-03-06T16:11:14.418Z,8.25
2023-03-06T16:12:54.120Z,8.28
2023-03-06T16:14:33.842Z,8.26
2023-03-06T16:16:13.659Z,8.27
2023-03-06T16:17:53.370Z,8.26
2023-03-06T16:19:33.236Z,8.24
2023-03-06T16:21:12.918Z,8.22
2023-03-06T16:22:52.745Z,8.25
2023-03-06T16:24:32.485Z,8.21
2023-03-06T16:26:12.230Z,8.22
2023-03-06T16:27:52.001Z,8.21
2023-03-06T16:29:31.814Z,8.21
2023-03-06T16:31:11.538Z,8.26
2023-03-06T16:32:51.301Z,8.2
2023-03-06T16:34:31.142Z,8.2
2023-03-06T16:36:10.999Z,8.18
2023-03-06T16:37:50.826Z,8.2
2023-03-06T16:39:30.387Z,8.18
2023-03-06T16:41:10.148Z,8.18
2023-03-06T16:42:50.080Z,8.16
2023-03-06T16:44:29.732Z,8.12
2023-03-06T16:46:09.605Z,8.12
2023-03-06T16:47:49.339Z,8.05
2023-03-06T16:49:29.001Z,8.02
2023-03-06T16:51:08.955Z,8.01
2023-03-06T16:52:48.539Z,7.96
2023-03-06T16:54:28.404Z,7.95
2023-03-06T16:56:08.074Z,7.9
2023-03-06T16:57:47.880Z,7.9
2023-03-06T16:59:27.676Z,7.85
2023-03-06T17:01:07.427Z,7.86
2023-03-06T17:02:47.274Z,7.79
2023-03-06T17:04:26.933Z,7.8
2023-03-06T17:06:06.706Z,7.76
2023-03-06T17:07:46.488Z,7.74
2023-03-06T17:09:26.278Z,7.71
2023-03-06T17:11:06.016Z,7.69
2023-03-06T17:12:45.800Z,7.68
2023-03-06T17:14:25.534Z,7.65
2023-03-06T17:16:05.287Z,7.61
2023-03-06T17:17:45.110Z,7.57
2023-03-06T17:19:24.833Z,7.54
2023-03-06T17:21:04.582Z,7.51
2023-03-06T17:22:44.345Z,7.45
2023-03-06T17:24:24.125Z,7.42
2023-03-06T17:26:03.926Z,7.34
2023-03-06T17:27:43.685Z,7.31
2023-03-06T17:29:23.419Z,7.26
2023-03-06T17:31:03.207Z,7.23
2023-03-06T17:32:42.979Z,7.19
2023-03-06T17:34:22.719Z,7.15
2023-03-06T17:36:02.492Z,7.09
2023-03-06T17:37:42.268Z,7.08
2023-03-06T17:39:22.018Z,7.05
2023-03-06T17:41:01.787Z,7.01
2023-03-06T17:42:41.647Z,6.94
2023-03-06T17:44:21.323Z,6.93
2023-03-06T17:46:01.091Z,6.9
2023-03-06T17:47:40.861Z,6.87
2023-03-06T17:49:20.633Z,6.8
2023-03-06T17:51:00.392Z,6.77
2023-03-06T17:52:40.239Z,6.72
2023-03-06T17:54:19.953Z,6.7
2023-03-06T17:55:59.688Z,6.66
2023-03-06T17:57:39.462Z,6.63
2023-03-06T17:59:19.237Z,6.59
2023-03-06T18:00:59.049Z,6.59
2023-03-06T18:02:38.818Z,6.53
2023-03-06T18:04:18.586Z,6.53
2023-03-06T18:05:58.290Z,6.48
2023-03-06T18:07:38.075Z,6.44
2023-03-06T18:09:17.834Z,6.45
2023-03-06T18:10:57.596Z,6.39
2023-03-06T18:12:37.367Z,6.39
2023-03-06T18:14:17.135Z,6.33
2023-03-06T18:15:56.907Z,6.33
2023-03-06T18:17:36.663Z,6.28
2023-03-06T18:19:16.430Z,6.24
2023-03-06T18:20:56.191Z,6.25
2023-03-06T18:22:35.971Z,6.2
2023-03-06T18:24:15.761Z,6.18
2023-03-06T18:25:55.513Z,6.16
2023-03-06T18:27:35.314Z,6.11
2023-03-06T18:29:15.055Z,6.1
2023-03-06T18:30:54.801Z,6.09
2023-03-06T18:32:34.585Z,6.04
2023-03-06T18:34:14.346Z,6.02
2023-03-06T18:35:54.144Z,6.01
2023-03-06T18:37:33.869Z,5.98
2023-03-06T18:39:13.670Z,5.96
2023-03-06T18:40:53.491Z,5.93
2023-03-06T18:42:33.188Z,5.9
2023-03-06T18:44:12.952Z,5.91
2023-03-06T18:45:52.740Z,5.85
2023-03-06T18:47:32.479Z,5.83
2023-03-06T18:49:12.272Z,5.79
2023-03-06T18:50:52.010Z,5.8
2023-03-06T18:52:31.829Z,5.77
2023-03-06T18:54:11.556Z,5.73
2023-03-06T18:55:51.309Z,5.72
2023-03-06T18:57:31.153Z,5.71
2023-03-06T18:59:10.862Z,5.66
2023-03-06T19:00:50.644Z,5.66
2023-03-06T19:02:30.393Z,5.63
2023-03-06T19:04:10.166Z,5.59
2023-03-06T19:05:49.927Z,5.6
2023-03-06T19:07:29.880Z,5.57
2023-03-06T19:09:09.466Z,5.54
2023-03-06T19:10:49.236Z,5.53
2023-03-06T19:12:29.095Z,5.48
2023-03-06T19:14:08.764Z,5.47
2023-03-06T19:15:48.534Z,5.46
2023-03-06T19:17:28.289Z,5.45
2023-03-06T19:19:08.072Z,5.43
2023-03-06T19:20:47.838Z,5.38
2023-03-06T19:22:27.600Z,5.36
2023-03-06T19:24:07.421Z,5.38
2023-03-06T19:25:47.134Z,5.35
2023-03-06T19:27:26.899Z,5.33
2023-03-06T19:29:06.667Z,5.3
2023-03-06T19:30:46.437Z,5.29
2023-03-06T19:32:26.195Z,5.23
2023-03-06T19:34:05.960Z,5.24
2023-03-06T19:35:45.743Z,5.19
2023-03-06T19:37:25.512Z,5.18
2023-03-06T19:39:05.287Z,5.18
2023-03-06T19:40:45.037Z,5.13
2023-03-06T19:42:24.820Z,5.14
2023-03-06T19:44:04.564Z,5.11
2023-03-06T19:45:44.337Z,5.08
2023-03-06T19:47:24.108Z,5.08
2023-03-06T19:49:03.893Z,5.06
2023-03-06T19:50:43.657Z,5.06
2023-03-06T19:52:23.410Z,5.03
2023-03-06T19:54:03.188Z,4.98
2023-03-06T19:55:42.956Z,5
2023-03-06T19:57:22.735Z,4.98
2023-03-06T19:59:02.507Z,4.92
2023-03-06T20:00:42.258Z,4.94
2023-03-06T20:02:22.032Z,4.89
2023-03-06T20:04:01.855Z,4.91
2023-03-06T20:05:41.540Z,4.85
2023-03-06T20:07:21.332Z,4.87
2023-03-06T20:09:01.087Z,4.85
2023-03-06T20:10:40.876Z,4.8
2023-03-06T20:12:20.621Z,4.8
2023-03-06T20:14:00.385Z,4.79
2023-03-06T20:15:40.145Z,4.75
2023-03-06T20:17:19.918Z,4.73
2023-03-06T20:18:59.697Z,4.73
2023-03-06T20:20:39.456Z,4.71
2023-03-06T20:22:19.245Z,4.67
2023-03-06T20:23:58.978Z,4.66
2023-03-06T20:25:38.751Z,4.66
2023-03-06T20:27:18.540Z,4.62
2023-03-06T20:28:58.286Z,4.63
2023-03-06T20:30:38.048Z,4.6
2023-03-06T20:32:17.818Z,4.6
2023-03-06T20:33:57.652Z,4.57
2023-03-06T20:35:37.338Z,4.54
2023-03-06T20:37:17.121Z,4.54
2023-03-06T20:38:56.902Z,4.5
2023-03-06T20:40:36.655Z,4.48
2023-03-06T20:42:16.424Z,4.48
2023-03-06T20:43:56.178Z,4.48
2023-03-06T20:45:35.960Z,4.44
2023-03-06T20:47:15.798Z,4.42
2023-03-06T20:48:55.492Z,4.41
2023-03-06T20:50:35.319Z,4.37
2023-03-06T20:52:15.071Z,4.4
2023-03-06T20:53:54.803Z,4.37
2023-03-06T20:55:34.554Z,4.32
2023-03-06T20:57:14.328Z,4.3
2023-03-06T20:58:54.106Z,4.3
2023-03-06T21:00:33.876Z,4.27
2023-03-06T21:02:13.730Z,4.27
2023-03-06T21:03:53.395Z,4.23
2023-03-06T21:05:33.208Z,4.23
2023-03-06T21:07:12.923Z,4.21
2023-03-06T21:08:52.697Z,4.19
2023-03-06T21:10:32.472Z,4.19
2023-03-06T21:12:12.219Z,4.19
2023-03-06T21:13:52.001Z,4.17
2023-03-06T21:15:31.896Z,4.17
2023-03-06T21:17:11.523Z,4.16
2023-03-06T21:18:51.303Z,4.11
2023-03-06T21:20:31.058Z,4.1
2023-03-06T21:22:10.835Z,4.08
2023-03-06T21:23:50.596Z,4.1
2023-03-06T21:25:30.373Z,4.05
2023-03-06T21:27:10.248Z,4.04
2023-03-06T21:28:49.903Z,4.05
2023-03-06T21:30:29.664Z,4.02
2023-03-06T21:32:09.436Z,4
2023-03-06T21:33:49.196Z,3.99
2023-03-06T21:35:28.971Z,3.97
2023-03-06T21:37:08.749Z,3.96
2023-03-06T21:38:48.522Z,3.98
2023-03-06T21:40:28.278Z,3.96
2023-03-06T21:42:08.065Z,3.94
2023-03-06T21:43:47.816Z,3.93
2023-03-06T21:45:27.572Z,3.91
2023-03-06T21:47:07.348Z,3.87
2023-03-06T21:48:47.118Z,3.9
2023-03-06T21:50:26.874Z,3.85
2023-03-06T21:52:06.638Z,3.84
2023-03-06T21:53:46.406Z,3.82
2023-03-06T21:55:26.176Z,3.84
2023-03-06T21:57:05.937Z,3.83
2023-03-06T21:58:45.746Z,3.81
2023-03-06T22:00:25.493Z,3.8
2023-03-06T22:02:05.262Z,3.75
2023-03-06T22:03:45.038Z,3.74
2023-03-06T22:05:24.779Z,3.75
2023-03-06T22:07:04.555Z,3.75
2023-03-06T22:08:44.315Z,3.72
2023-03-06T22:10:24.091Z,3.73
2023-03-06T22:12:03.842Z,3.68
2023-03-06T22:13:43.622Z,3.7